Time;durP1;ratioP1;P1;durP2;ratioP2;P2;SDS_P1;SDS_P2;PMS_P1;PMS_P2;Temp;Humidity;BMP_temperature;BMP_pressure;BME280_temperature;BME280_humidity;BME280_pressure;Samples;Min_cycle;Max_cycle;Signal;HPM_P1;HPM_P2
2022/07/19 00:00:06;;;;;;;4.28;3.10;;;22.30;52.40;;;;;;5064026;28;20041;-64
2022/07/19 00:02:31;;;;;;;4.60;3.22;;;22.30;52.50;;;;;;5053801;28;20049;-64
2022/07/19 00:04:57;;;;;;;5.20;3.78;;;22.30;52.50;;;;;;5048775;28;20122;-64
2022/07/19 00:07:23;;;;;;;5.75;3.35;;;22.20;52.70;;;;;;5050788;28;20113;-65
2022/07/19 00:09:48;;;;;;;6.60;3.28;;;22.20;52.70;;;;;;5051538;28;20048;-64
2022/07/19 00:12:14;;;;;;;4.80;3.28;;;22.20;52.80;;;;;;5050648;28;20632;-65
2022/07/19 00:14:40;;;;;;;4.57;3.80;;;22.10;52.80;;;;;;5051046;28;20071;-65
2022/07/19 00:17:06;;;;;;;6.55;4.03;;;22.20;52.90;;;;;;5050889;28;20116;-65
2022/07/19 00:19:31;;;;;;;5.43;4.20;;;22.10;52.90;;;;;;5051411;28;20487;-65
2022/07/19 00:21:57;;;;;;;7.70;4.25;;;22.10;53.10;;;;;;5051710;28;20544;-65
2022/07/19 00:24:23;;;;;;;4.55;3.05;;;22.10;53.40;;;;;;5050618;28;20394;-65
2022/07/19 00:26:48;;;;;;;4.75;3.25;;;22.00;53.30;;;;;;5034427;28;20040;-68
2022/07/19 00:29:14;;;;;;;8.90;4.30;;;22.00;53.20;;;;;;5051251;28;20091;-68
2022/07/19 00:31:40;;;;;;;4.25;3.42;;;21.90;53.30;;;;;;5049959;28;20532;-65
2022/07/19 00:34:05;;;;;;;6.68;3.47;;;21.90;53.30;;;;;;5050357;28;20409;-65
2022/07/19 00:36:31;;;;;;;4.63;3.15;;;21.80;53.30;;;;;;5050553;28;20075;-65
2022/07/19 00:38:57;;;;;;;4.28;3.33;;;21.80;53.30;;;;;;5067225;28;20115;-65
2022/07/19 00:41:22;;;;;;;7.13;4.20;;;21.80;53.40;;;;;;5064584;28;20087;-65
2022/07/19 00:43:50;;;;;;;4.53;3.10;;;21.70;53.40;;;;;;5051614;28;20233;-65
2022/07/19 00:46:19;;;;;;;5.65;3.70;;;21.70;53.60;;;;;;5051047;28;20076;-65
2022/07/19 00:48:46;;;;;;;4.53;3.65;;;21.70;53.70;;;;;;5050825;28;20456;-65
2022/07/19 00:51:13;;;;;;;5.03;3.72;;;21.60;53.60;;;;;;5051332;28;20522;-65
2022/07/19 00:53:40;;;;;;;4.90;3.50;;;21.60;53.70;;;;;;5050412;28;20486;-65
2022/07/19 00:56:08;;;;;;;6.50;4.25;;;21.60;53.70;;;;;;5051083;28;20044;-65
2022/07/19 00:58:36;;;;;;;4.47;3.42;;;21.50;53.90;;;;;;5050423;28;20041;-65
2022/07/19 01:01:04;;;;;;;4.75;3.58;;;21.50;53.90;;;;;;5067575;28;20539;-65
2022/07/19 01:03:30;;;;;;;6.97;3.45;;;21.50;53.90;;;;;;5053547;28;20049;-65
2022/07/19 01:05:56;;;;;;;3.83;3.35;;;21.40;53.80;;;;;;5054247;28;20041;-65
2022/07/19 01:08:22;;;;;;;5.55;3.47;;;21.40;54.00;;;;;;5034216;28;20076;-64
2022/07/19 01:10:48;;;;;;;5.13;3.42;;;21.40;54.00;;;;;;5038338;28;20081;-65
2022/07/19 01:13:14;;;;;;;5.85;3.90;;;21.30;54.10;;;;;;5068709;28;20396;-65
2022/07/19 01:15:41;;;;;;;4.18;3.42;;;21.30;54.30;;;;;;5053767;28;20037;-65
2022/07/19 01:18:08;;;;;;;6.15;3.70;;;21.30;54.30;;;;;;5053640;28;20119;-65
2022/07/19 01:20:34;;;;;;;4.63;3.42;;;21.20;54.20;;;;;;5070265;28;20049;-65
2022/07/19 01:22:59;;;;;;;4.82;3.90;;;21.20;54.20;;;;;;5042572;28;20055;-65
2022/07/19 01:25:29;;;;;;;3.78;3.08;;;21.20;54.30;;;;;;5053759;28;20048;-65
2022/07/19 01:27:55;;;;;;;5.57;3.70;;;21.10;54.30;;;;;;5054001;28;20043;-65
2022/07/19 01:30:23;;;;;;;4.15;3.58;;;21.10;54.40;;;;;;5053883;28;20429;-65
2022/07/19 01:32:49;;;;;;;4.63;3.75;;;21.10;54.40;;;;;;5054002;28;20073;-65
2022/07/19 01:35:15;;;;;;;6.95;3.75;;;21.10;54.50;;;;;;5054090;28;20048;-68
2022/07/19 01:37:42;;;;;;;3.60;3.15;;;21.10;54.60;;;;;;5062415;28;20120;-68
2022/07/19 01:40:11;;;;;;;4.95;3.58;;;21.10;54.70;;;;;;5053602;28;20052;-65
2022/07/19 01:42:37;;;;;;;4.93;3.63;;;21.00;54.60;;;;;;5053306;28;20041;-65
2022/07/19 01:45:04;;;;;;;5.75;4.75;;;21.00;54.60;;;;;;5052585;28;20497;-64
2022/07/19 01:47:30;;;;;;;6.53;3.83;;;21.00;54.70;;;;;;5057041;28;20398;-65
2022/07/19 01:49:56;;;;;;;6.07;4.00;;;20.90;54.60;;;;;;5052353;28;20036;-65
2022/07/19 01:52:22;;;;;;;5.43;3.75;;;20.90;54.60;;;;;;5049947;28;20429;-65
2022/07/19 01:54:47;;;;;;;6.03;3.67;;;20.90;54.60;;;;;;5051081;28;20120;-65
2022/07/19 01:57:13;;;;;;;5.03;3.42;;;20.90;54.60;;;;;;5053392;28;20036;-65
2022/07/19 01:59:40;;;;;;;4.70;4.07;;;20.80;54.60;;;;;;5053026;28;20059;-65
2022/07/19 02:02:07;;;;;;;6.03;4.78;;;20.80;54.80;;;;;;5054271;28;20124;-65
2022/07/19 02:04:32;;;;;;;5.22;4.38;;;20.80;55.10;;;;;;5033063;28;20052;-65
2022/07/19 02:06:58;;;;;;;4.82;3.55;;;20.80;55.30;;;;;;5033351;28;20045;-65
2022/07/19 02:09:24;;;;;;;4.55;3.58;;;20.70;55.00;;;;;;5043140;28;20041;-65
2022/07/19 02:11:49;;;;;;;4.05;3.35;;;20.70;54.90;;;;;;5052492;28;20091;-65
2022/07/19 02:14:15;;;;;;;5.43;3.92;;;20.60;54.90;;;;;;5052208;28;20029;-65
2022/07/19 02:16:41;;;;;;;6.40;3.83;;;20.60;54.90;;;;;;5053099;28;20044;-65
2022/07/19 02:19:07;;;;;;;5.97;3.88;;;20.60;55.00;;;;;;5052723;28;20040;-65
2022/07/19 02:21:37;;;;;;;5.75;4.53;;;20.60;55.10;;;;;;5052734;28;20076;-65
2022/07/19 02:24:05;;;;;;;5.97;4.28;;;20.50;55.30;;;;;;5060764;28;20128;-65
2022/07/19 02:26:32;;;;;;;8.38;5.03;;;20.50;55.50;;;;;;5032969;28;20045;-65
2022/07/19 02:28:57;;;;;;;5.18;3.97;;;20.50;55.60;;;;;;5039522;28;20048;-69
2022/07/19 02:31:23;;;;;;;6.18;4.18;;;20.40;55.50;;;;;;5052301;28;20041;-68
2022/07/19 02:33:49;;;;;;;4.60;3.60;;;20.40;55.50;;;;;;5035265;28;20067;-68
2022/07/19 02:36:15;;;;;;;5.05;3.63;;;20.40;55.50;;;;;;5052764;28;20073;-68
2022/07/19 02:38:41;;;;;;;3.90;3.20;;;20.30;55.50;;;;;;5052988;28;20052;-68
2022/07/19 02:41:08;;;;;;;5.05;3.88;;;20.30;55.50;;;;;;5053612;28;20106;-69
2022/07/19 02:43:33;;;;;;;5.85;3.63;;;20.20;55.30;;;;;;5051904;28;20494;-68
2022/07/19 02:45:59;;;;;;;5.47;3.90;;;20.20;55.40;;;;;;5052439;28;20052;-68
2022/07/19 02:48:24;;;;;;;6.22;3.70;;;20.20;55.40;;;;;;5031898;28;20041;-68
2022/07/19 02:50:50;;;;;;;4.60;4.05;;;20.20;55.50;;;;;;5052139;28;20045;-68
2022/07/19 02:53:16;;;;;;;5.07;3.80;;;20.10;55.50;;;;;;5052036;28;20053;-68
2022/07/19 02:55:41;;;;;;;5.60;3.78;;;20.20;55.50;;;;;;5051901;28;20196;-68
2022/07/19 02:58:07;;;;;;;5.47;3.72;;;20.10;55.50;;;;;;5052329;28;20045;-68
2022/07/19 03:00:33;;;;;;;5.30;4.65;;;20.10;55.50;;;;;;5051334;28;20146;-69
2022/07/19 03:03:43;;;;;;;6.65;4.55;;;20.10;55.70;;;;;;5051732;28;20045;-69
2022/07/19 03:05:47;;;;;;;4.72;3.47;;;20.10;55.70;;;;;;5051719;28;20053;-69
2022/07/19 03:08:12;;;;;;;5.60;4.70;;;20.00;55.50;;;;;;5053201;28;20037;-69
2022/07/19 03:10:38;;;;;;;7.38;5.40;;;20.00;55.60;;;;;;5051839;28;20095;-69
2022/07/19 03:13:04;;;;;;;9.30;5.65;;;20.00;55.60;;;;;;5051621;28;20041;-69
2022/07/19 03:15:30;;;;;;;7.05;5.03;;;20.00;55.50;;;;;;5051936;28;20552;-69
2022/07/19 03:17:55;;;;;;;10.27;5.65;;;20.00;55.40;;;;;;5052250;28;20036;-68
2022/07/19 03:20:21;;;;;;;6.75;5.30;;;19.90;55.20;;;;;;5051650;28;20037;-68
2022/07/19 03:22:47;;;;;;;7.25;5.20;;;19.90;55.20;;;;;;5047948;28;20044;-69
2022/07/19 03:25:12;;;;;;;6.65;4.47;;;19.80;55.10;;;;;;5051192;28;20047;-68
2022/07/19 03:27:39;;;;;;;5.47;3.90;;;19.70;55.00;;;;;;5052114;28;20041;-69
2022/07/19 03:30:05;;;;;;;5.15;3.75;;;19.70;55.10;;;;;;5051685;28;20059;-69
2022/07/19 03:32:31;;;;;;;4.78;3.67;;;19.70;55.30;;;;;;5035258;28;20053;-68
2022/07/19 03:34:57;;;;;;;5.15;3.70;;;19.70;55.40;;;;;;5047583;28;20033;-69
2022/07/19 03:37:22;;;;;;;5.30;4.03;;;19.70;55.50;;;;;;5052005;28;20041;-68
2022/07/19 03:39:48;;;;;;;6.07;3.70;;;19.70;55.60;;;;;;5035077;28;20110;-68
2022/07/19 03:42:14;;;;;;;4.97;3.50;;;19.70;55.60;;;;;;5067525;28;20401;-68
2022/07/19 03:44:39;;;;;;;4.15;3.60;;;19.70;55.50;;;;;;5052015;28;20041;-68
2022/07/19 03:47:05;;;;;;;5.53;3.60;;;19.70;55.50;;;;;;5052558;28;20045;-68
2022/07/19 03:49:31;;;;;;;4.30;3.50;;;19.70;55.50;;;;;;5051711;28;20040;-68
2022/07/19 03:51:56;;;;;;;4.43;3.67;;;19.70;55.50;;;;;;5051217;28;20128;-65
2022/07/19 03:54:22;;;;;;;5.22;3.58;;;19.70;55.40;;;;;;5051799;28;20040;-65
2022/07/19 03:56:48;;;;;;;5.13;3.70;;;19.70;55.40;;;;;;5051358;28;20045;-64
2022/07/19 03:59:13;;;;;;;4.45;3.58;;;19.70;55.40;;;;;;5034724;28;20080;-64
2022/07/19 04:01:41;;;;;;;6.50;4.15;;;19.70;55.50;;;;;;5051005;28;20057;-64
2022/07/19 04:04:07;;;;;;;4.68;3.90;;;19.70;55.50;;;;;;5050673;28;20041;-64
2022/07/19 04:06:33;;;;;;;5.50;3.55;;;19.70;55.50;;;;;;5052316;28;20078;-67
2022/07/19 04:08:58;;;;;;;4.75;3.92;;;19.70;55.80;;;;;;5067543;28;20033;-67
2022/07/19 04:11:24;;;;;;;4.55;3.55;;;19.70;55.40;;;;;;5050803;28;20045;-69
2022/07/19 04:13:50;;;;;;;4.30;3.90;;;19.70;55.40;;;;;;5051334;28;20041;-68
2022/07/19 04:16:16;;;;;;;5.28;3.78;;;19.70;55.40;;;;;;5051020;28;20037;-68
2022/07/19 04:18:41;;;;;;;5.28;3.60;;;19.70;55.50;;;;;;5034720;28;20041;-69
2022/07/19 04:21:07;;;;;;;6.03;4.05;;;19.70;55.50;;;;;;5050608;28;20048;-68
2022/07/19 04:23:33;;;;;;;4.28;3.38;;;19.70;55.50;;;;;;5034606;28;20032;-69
2022/07/19 04:25:58;;;;;;;5.40;3.40;;;19.70;55.50;;;;;;5052090;28;20029;-69
2022/07/19 04:28:24;;;;;;;6.25;4.95;;;19.70;55.60;;;;;;5051256;28;20045;-69
2022/07/19 04:30:50;;;;;;;5.45;4.18;;;19.70;55.70;;;;;;5050240;28;20095;-68
2022/07/19 04:33:17;;;;;;;5.93;3.95;;;19.70;55.80;;;;;;5050824;28;20033;-68
2022/07/19 04:35:44;;;;;;;5.40;4.03;;;19.60;55.70;;;;;;5036822;28;20045;-68
2022/07/19 04:38:10;;;;;;;6.13;4.50;;;19.70;55.70;;;;;;5055079;28;20080;-68
2022/07/19 04:40:35;;;;;;;7.53;4.57;;;19.60;55.70;;;;;;5054265;28;20454;-68
2022/07/19 04:43:01;;;;;;;9.07;5.85;;;19.60;55.80;;;;;;5037889;28;20049;-68
2022/07/19 04:45:27;;;;;;;7.72;5.07;;;19.60;55.90;;;;;;5054678;28;20083;-67
2022/07/19 04:47:53;;;;;;;7.55;4.97;;;19.60;56.10;;;;;;5054570;28;20049;-69
2022/07/19 04:50:19;;;;;;;5.30;4.55;;;19.60;56.30;;;;;;5054265;28;20041;-68
2022/07/19 04:52:45;;;;;;;5.10;4.20;;;19.60;56.40;;;;;;5054852;28;20067;-69
2022/07/19 04:55:11;;;;;;;5.65;4.55;;;19.50;56.40;;;;;;5055030;28;20045;-69
2022/07/19 04:57:37;;;;;;;6.18;3.95;;;19.50;56.50;;;;;;5037229;28;20048;-69
2022/07/19 05:00:05;;;;;;;6.82;5.13;;;19.50;56.50;;;;;;5048801;28;20057;-69
2022/07/19 05:02:31;;;;;;;4.93;4.07;;;19.50;56.70;;;;;;5054950;28;20046;-69
2022/07/19 05:04:57;;;;;;;6.43;4.30;;;19.50;57.10;;;;;;5067834;28;20037;-69
2022/07/19 05:07:22;;;;;;;6.15;4.40;;;19.50;56.80;;;;;;5050955;28;20034;-70
2022/07/19 05:09:48;;;;;;;6.78;4.70;;;19.50;56.70;;;;;;5064838;28;20090;-69
2022/07/19 05:12:14;;;;;;;7.32;5.05;;;19.60;57.00;;;;;;5034083;28;20047;-69
2022/07/19 05:14:39;;;;;;;6.82;5.05;;;19.60;57.50;;;;;;5049102;28;20049;-69
2022/07/19 05:17:05;;;;;;;8.10;5.72;;;19.60;57.80;;;;;;5036285;28;20038;-69
2022/07/19 05:19:31;;;;;;;8.20;6.28;;;19.70;58.50;;;;;;5034308;28;20041;-69
2022/07/19 05:21:56;;;;;;;7.95;5.88;;;19.80;58.50;;;;;;5045044;28;20084;-69
2022/07/19 05:24:22;;;;;;;7.82;5.22;;;19.90;58.50;;;;;;5053933;28;20041;-69
2022/07/19 05:26:48;;;;;;;7.55;5.60;;;20.10;58.60;;;;;;5053818;28;20120;-69
2022/07/19 05:29:14;;;;;;;10.77;5.88;;;20.40;58.70;;;;;;5054388;28;20045;-69
2022/07/19 05:31:40;;;;;;;8.00;5.18;;;20.60;58.60;;;;;;5053447;28;20478;-69
2022/07/19 05:34:05;;;;;;;6.43;5.43;;;20.90;58.30;;;;;;5054943;28;20048;-69
2022/07/19 05:36:31;;;;;;;9.57;6.22;;;21.20;58.00;;;;;;5053154;28;20036;-70
2022/07/19 05:38:57;;;;;;;6.68;5.35;;;21.50;57.60;;;;;;5053880;28;20123;-69
2022/07/19 05:41:23;;;;;;;10.18;5.80;;;21.80;57.10;;;;;;5052990;28;20037;-68
2022/07/19 05:43:50;;;;;;;8.48;5.35;;;22.00;56.00;;;;;;5053650;28;20559;-69
2022/07/19 05:46:19;;;;;;;8.60;5.88;;;22.30;55.10;;;;;;5036059;28;20466;-69
2022/07/19 05:48:44;;;;;;;8.43;5.25;;;22.50;55.00;;;;;;5054581;28;20382;-69
2022/07/19 05:51:10;;;;;;;7.82;5.20;;;22.70;54.50;;;;;;5052755;28;20045;-68
2022/07/19 05:53:36;;;;;;;8.10;5.38;;;23.00;53.90;;;;;;5054539;28;20041;-69
2022/07/19 05:56:03;;;;;;;7.30;5.35;;;23.20;53.30;;;;;;5053426;28;20045;-68
2022/07/19 05:58:29;;;;;;;7.20;5.53;;;23.50;52.40;;;;;;5069928;28;20072;-68
2022/07/19 06:03:38;;;;;;;;;;;24.00;51.60;;;;;;5052944;28;20056;-65
2022/07/19 06:06:04;;;;;;;7.95;4.55;;;24.20;51.50;;;;;;5053267;28;19916;-65
2022/07/19 06:08:30;;;;;;;7.05;4.85;;;24.40;51.20;;;;;;5052892;28;20106;-65
2022/07/19 06:10:55;;;;;;;8.20;4.55;;;24.50;50.20;;;;;;5054104;28;20045;-68
2022/07/19 06:13:21;;;;;;;9.10;4.82;;;24.70;50.00;;;;;;5052464;28;20037;-68
2022/07/19 06:15:47;;;;;;;6.13;4.78;;;25.00;49.90;;;;;;5053154;28;20048;-68
2022/07/19 06:18:13;;;;;;;7.30;4.18;;;25.20;49.90;;;;;;5051186;28;20103;-69
2022/07/19 06:20:38;;;;;;;7.75;4.88;;;25.50;48.80;;;;;;5019859;28;20045;-68
2022/07/19 06:23:04;;;;;;;5.55;4.57;;;25.70;47.60;;;;;;5053773;28;20405;-68
2022/07/19 06:25:30;;;;;;;6.47;4.25;;;25.90;47.10;;;;;;5054166;28;20037;-68
2022/07/19 06:27:55;;;;;;;7.55;4.88;;;26.00;46.50;;;;;;5052584;28;20036;-68
2022/07/19 06:30:21;;;;;;;7.13;4.78;;;26.10;45.50;;;;;;5052686;28;20120;-68
2022/07/19 06:32:47;;;;;;;6.25;4.72;;;26.30;45.40;;;;;;5052621;28;20061;-69
2022/07/19 06:35:12;;;;;;;7.20;4.78;;;26.30;44.90;;;;;;5049333;28;20051;-64
2022/07/19 06:37:38;;;;;;;8.45;4.90;;;26.50;45.00;;;;;;5052744;28;20087;-64
2022/07/19 06:40:04;;;;;;;7.95;4.45;;;26.60;45.20;;;;;;5052587;28;20048;-65
2022/07/19 06:42:31;;;;;;;5.55;3.63;;;26.80;44.40;;;;;;5052041;28;20040;-65
2022/07/19 06:44:58;;;;;;;10.75;4.65;;;26.90;44.40;;;;;;5053497;28;20498;-65
2022/07/19 06:47:24;;;;;;;7.38;3.85;;;27.10;44.70;;;;;;5053569;28;20037;-65
2022/07/19 06:49:49;;;;;;;7.07;4.30;;;27.10;44.10;;;;;;5017390;28;20033;-65
2022/07/19 06:52:15;;;;;;;7.10;4.50;;;27.20;44.20;;;;;;5025976;28;20045;-66
2022/07/19 06:54:41;;;;;;;11.27;4.00;;;27.20;43.80;;;;;;5051459;28;20037;-66
2022/07/19 06:57:08;;;;;;;7.60;4.32;;;27.20;44.30;;;;;;5051591;28;20112;-65
2022/07/19 06:59:34;;;;;;;7.43;4.00;;;27.20;44.60;;;;;;5052985;28;20059;-65
2022/07/19 07:02:01;;;;;;;8.68;4.20;;;27.40;44.40;;;;;;5052160;28;20049;-65
2022/07/19 07:04:28;;;;;;;5.43;3.17;;;27.50;44.40;;;;;;5046890;28;20406;-65
2022/07/19 07:06:54;;;;;;;5.65;3.72;;;27.60;44.20;;;;;;5035630;28;20057;-65
2022/07/19 07:09:20;;;;;;;6.75;3.17;;;27.70;43.70;;;;;;5052135;28;20051;-65
2022/07/19 07:11:45;;;;;;;5.85;2.92;;;27.90;43.60;;;;;;5053013;28;20033;-65
2022/07/19 07:14:11;;;;;;;8.27;3.58;;;28.10;43.00;;;;;;5051545;28;20040;-65
2022/07/19 07:16:37;;;;;;;5.07;2.80;;;28.20;42.50;;;;;;5051890;28;20098;-65
2022/07/19 07:19:03;;;;;;;6.78;3.08;;;28.40;42.70;;;;;;5051639;28;20052;-65
2022/07/19 07:21:29;;;;;;;7.18;3.00;;;28.60;42.80;;;;;;5051877;28;20049;-65
2022/07/19 07:23:55;;;;;;;5.30;2.83;;;28.80;42.00;;;;;;5051684;28;20112;-65
2022/07/19 07:26:21;;;;;;;5.50;3.10;;;28.90;41.90;;;;;;5051742;28;20558;-65
2022/07/19 07:28:47;;;;;;;4.45;2.63;;;29.10;41.40;;;;;;5052814;28;20037;-65
2022/07/19 07:31:12;;;;;;;6.45;2.63;;;29.30;41.40;;;;;;5051379;28;20049;-65
2022/07/19 07:33:38;;;;;;;5.05;2.88;;;29.40;41.60;;;;;;5050899;28;20033;-65
2022/07/19 07:36:04;;;;;;;5.25;2.85;;;29.60;41.40;;;;;;5035180;28;20037;-67
2022/07/19 07:38:29;;;;;;;5.57;2.80;;;29.70;41.20;;;;;;5051499;28;20109;-69
2022/07/19 07:40:56;;;;;;;4.35;2.38;;;29.70;40.90;;;;;;5051624;28;20159;-69
2022/07/19 07:43:21;;;;;;;4.22;2.40;;;29.80;40.60;;;;;;5051135;28;20084;-65
2022/07/19 07:45:47;;;;;;;7.22;2.95;;;29.80;40.60;;;;;;5051071;28;20129;-65
2022/07/19 07:48:13;;;;;;;6.60;2.40;;;29.80;40.30;;;;;;5051477;28;20040;-68
2022/07/19 07:50:38;;;;;;;4.97;2.30;;;29.80;40.30;;;;;;5051424;28;20049;-65
2022/07/19 07:53:04;;;;;;;4.90;2.22;;;29.80;40.30;;;;;;5052378;28;20478;-65
2022/07/19 07:55:30;;;;;;;4.45;2.33;;;29.90;40.70;;;;;;5031256;28;20391;-65
2022/07/19 07:57:55;;;;;;;7.60;2.70;;;30.00;40.60;;;;;;5031620;28;20099;-65
2022/07/19 08:00:21;;;;;;;4.63;2.83;;;30.10;40.10;;;;;;5044300;28;20052;-65
2022/07/19 08:02:49;;;;;;;4.82;2.80;;;30.10;40.30;;;;;;5050925;28;20045;-65
2022/07/19 08:05:15;;;;;;;3.30;1.92;;;30.10;40.10;;;;;;5050983;28;20099;-65
2022/07/19 08:07:41;;;;;;;4.25;2.13;;;30.20;39.70;;;;;;5018394;28;20048;-65
2022/07/19 08:10:08;;;;;;;5.10;2.03;;;30.40;39.40;;;;;;5054329;28;20036;-65
2022/07/19 08:12:34;;;;;;;4.68;2.15;;;30.50;39.10;;;;;;5061276;28;20044;-65
2022/07/19 08:15:00;;;;;;;4.25;2.15;;;30.50;38.60;;;;;;5033767;28;20482;-65
2022/07/19 08:17:26;;;;;;;3.88;2.22;;;30.60;38.50;;;;;;5039048;28;20045;-64
2022/07/19 08:19:51;;;;;;;3.05;1.90;;;30.70;37.80;;;;;;5056209;28;20457;-67
2022/07/19 08:22:20;;;;;;;6.13;1.98;;;30.70;38.60;;;;;;5055082;28;20037;-64
2022/07/19 08:24:46;;;;;;;4.35;1.92;;;30.80;38.00;;;;;;5054858;28;20095;-64
2022/07/19 08:27:12;;;;;;;6.30;2.55;;;30.90;38.20;;;;;;5055149;28;20037;-64
2022/07/19 08:29:38;;;;;;;4.15;2.00;;;31.00;38.10;;;;;;5054868;28;20052;-68
2022/07/19 08:32:04;;;;;;;4.63;2.50;;;31.10;37.60;;;;;;5065397;28;20041;-69
2022/07/19 08:34:30;;;;;;;4.90;2.22;;;31.20;37.00;;;;;;5044569;28;20391;-69
2022/07/19 08:36:56;;;;;;;4.97;1.75;;;31.30;37.70;;;;;;5051505;28;20037;-68
2022/07/19 08:39:21;;;;;;;4.70;2.10;;;31.30;37.40;;;;;;5035149;28;20037;-69
2022/07/19 08:41:47;;;;;;;4.28;1.80;;;31.40;38.20;;;;;;5051267;28;20055;-68
2022/07/19 08:44:16;;;;;;;2.83;1.83;;;31.50;37.00;;;;;;5054395;28;20045;-70
2022/07/19 08:46:42;;;;;;;4.30;1.73;;;31.70;37.50;;;;;;5054525;28;20389;-69
2022/07/19 08:49:11;;;;;;;6.03;1.90;;;31.80;36.20;;;;;;5050429;28;20112;-69
2022/07/19 08:51:37;;;;;;;3.53;1.88;;;32.00;37.20;;;;;;5054261;28;20139;-69
2022/07/19 08:54:03;;;;;;;4.63;1.65;;;32.10;36.80;;;;;;5054717;28;20071;-69
2022/07/19 08:59:23;;;;;;;3.95;1.65;;;32.30;35.10;;;;;;5041464;28;20049;-69
2022/07/19 09:01:52;;;;;;;8.05;2.15;;;32.40;36.20;;;;;;5049749;28;20098;-70
2022/07/19 09:04:24;;;;;;;3.38;1.55;;;32.50;36.00;;;;;;5053408;28;20045;-70
2022/07/19 09:06:55;;;;;;;4.35;1.83;;;32.50;35.30;;;;;;5061005;28;20084;-70
2022/07/19 09:09:24;;;;;;;7.28;1.90;;;32.60;36.20;;;;;;5051380;28;20087;-69
2022/07/19 09:11:51;;;;;;;5.97;1.63;;;32.70;35.80;;;;;;5053575;28;20112;-65
2022/07/19 09:14:22;;;;;;;5.07;1.80;;;32.80;35.00;;;;;;5055019;28;20120;-66
2022/07/19 09:16:57;;;;;;;5.07;1.60;;;33.00;34.40;;;;;;5050470;28;20045;-65
2022/07/19 09:19:25;;;;;;;5.22;1.60;;;33.00;33.10;;;;;;5050700;28;20071;-65
2022/07/19 09:22:08;;;;;;;3.67;1.65;;;33.20;33.80;;;;;;5060657;28;20075;-65
2022/07/19 09:24:37;;;;;;;3.65;1.65;;;33.30;34.30;;;;;;5054197;28;20391;-65
2022/07/19 09:27:06;;;;;;;7.72;2.72;;;33.40;34.10;;;;;;5053773;28;20056;-66
2022/07/19 09:29:35;;;;;;;3.63;1.95;;;33.50;33.60;;;;;;5043397;28;20051;-66
2022/07/19 09:32:02;;;;;;;4.75;1.95;;;33.70;33.10;;;;;;5059408;28;20512;-67
2022/07/19 09:34:42;;;;;;;4.25;1.80;;;33.80;32.70;;;;;;5049032;28;20043;-68
2022/07/19 09:37:11;;;;;;;2.35;1.30;;;33.80;32.80;;;;;;5039153;28;20049;-67
2022/07/19 09:39:41;;;;;;;4.63;1.70;;;33.90;32.50;;;;;;5048118;28;20041;-67
2022/07/19 09:42:08;;;;;;;4.95;1.70;;;33.90;32.40;;;;;;5053107;28;20075;-67
2022/07/19 09:44:34;;;;;;;3.60;1.63;;;34.00;32.80;;;;;;5053409;28;20094;-67
2022/07/19 09:46:59;;;;;;;5.55;1.58;;;34.00;32.80;;;;;;5036416;28;20127;-68
2022/07/19 09:49:26;;;;;;;5.97;1.80;;;34.00;33.10;;;;;;5053821;28;20080;-71
2022/07/19 09:51:54;;;;;;;4.93;1.83;;;34.10;33.10;;;;;;5052826;28;20053;-71
2022/07/19 09:54:22;;;;;;;3.05;1.70;;;34.20;33.10;;;;;;5053061;28;20048;-70
2022/07/19 09:56:52;;;;;;;4.60;1.80;;;34.20;33.10;;;;;;5053237;28;20036;-70
2022/07/19 09:59:20;;;;;;;2.55;1.38;;;34.30;32.90;;;;;;5054837;28;20053;-70
2022/07/19 10:01:51;;;;;;;8.38;1.95;;;34.40;32.00;;;;;;5052269;28;20049;-70
2022/07/19 10:04:19;;;;;;;6.07;2.10;;;34.50;32.70;;;;;;5054112;28;20037;-70
2022/07/19 10:06:47;;;;;;;3.45;1.75;;;34.40;32.80;;;;;;5053107;28;20071;-71
2022/07/19 10:09:15;;;;;;;6.30;1.80;;;34.40;33.00;;;;;;5053047;28;20083;-71
2022/07/19 10:11:41;;;;;;;4.13;1.77;;;34.40;33.00;;;;;;5053955;28;20119;-70
2022/07/19 10:14:08;;;;;;;5.45;1.92;;;34.30;32.50;;;;;;5054180;28;20113;-70
2022/07/19 10:16:55;;;;;;;3.63;1.77;;;34.30;32.60;;;;;;5052489;28;20036;-70
2022/07/19 10:19:43;;;;;;;4.22;1.80;;;34.40;32.80;;;;;;5052896;28;20094;-69
2022/07/19 10:22:14;;;;;;;3.90;1.85;;;34.50;32.00;;;;;;5065505;28;20478;-68
2022/07/19 10:25:03;;;;;;;3.92;2.03;;;34.50;32.30;;;;;;5053877;28;20060;-68
2022/07/19 10:27:28;;;;;;;4.82;2.15;;;34.60;32.70;;;;;;5040284;28;20032;-68
2022/07/19 10:30:12;;;;;;;2.90;1.60;;;34.80;33.00;;;;;;5052879;28;20505;-69
2022/07/19 10:32:43;;;;;;;6.15;2.25;;;34.90;32.40;;;;;;5051701;28;20102;-70
2022/07/19 10:35:18;;;;;;;4.85;1.52;;;34.90;33.00;;;;;;5035555;28;20116;-69
2022/07/19 10:37:46;;;;;;;5.63;1.73;;;35.00;33.20;;;;;;5052460;28;20072;-70
2022/07/19 10:40:12;;;;;;;4.15;2.10;;;35.10;32.50;;;;;;5050572;28;20120;-70
2022/07/19 10:43:08;;;;;;;4.47;1.90;;;35.10;31.90;;;;;;5051763;28;20044;-70
2022/07/19 10:45:35;;;;;;;5.93;2.25;;;35.20;32.30;;;;;;5045807;28;20041;-70
2022/07/19 10:48:06;;;;;;;4.50;1.95;;;35.20;32.80;;;;;;5051859;28;20116;-65
2022/07/19 10:50:47;;;;;;;3.80;1.90;;;35.20;32.70;;;;;;5051746;28;20055;-65
2022/07/19 10:53:41;;;;;;;3.15;1.75;;;35.30;32.00;;;;;;5046570;28;20367;-65
2022/07/19 10:56:27;;;;;;;5.82;1.95;;;35.20;32.60;;;;;;5050985;28;20079;-65
2022/07/19 10:58:59;;;;;;;8.48;2.28;;;35.30;33.40;;;;;;5050229;28;20250;-65
2022/07/19 11:01:27;;;;;;;5.30;1.88;;;35.30;32.10;;;;;;5034226;28;20119;-65
2022/07/19 11:03:54;;;;;;;3.35;1.80;;;35.30;32.70;;;;;;5052130;28;20049;-64
2022/07/19 11:06:25;;;;;;;3.35;1.90;;;35.30;32.20;;;;;;5050925;28;20041;-65
2022/07/19 11:08:57;;;;;;;6.13;1.88;;;35.30;32.50;;;;;;5049711;28;20751;-65
2022/07/19 11:11:26;;;;;;;4.95;1.77;;;35.30;32.40;;;;;;5051735;28;20051;-65
2022/07/19 11:13:59;;;;;;;6.20;1.50;;;35.40;32.30;;;;;;5050959;28;20041;-65
2022/07/19 11:16:26;;;;;;;3.53;1.67;;;35.40;32.00;;;;;;5051782;28;20088;-65
2022/07/19 11:19:01;;;;;;;4.88;1.70;;;35.50;31.90;;;;;;5038675;28;20394;-65
2022/07/19 11:21:32;;;;;;;5.10;1.80;;;35.50;32.40;;;;;;5045542;28;20116;-66
2022/07/19 11:23:58;;;;;;;5.03;2.10;;;35.60;31.10;;;;;;5050497;28;20091;-66
2022/07/19 11:26:24;;;;;;;4.30;1.70;;;35.70;30.80;;;;;;5051723;28;20102;-66
2022/07/19 11:28:50;;;;;;;6.25;1.90;;;35.80;31.20;;;;;;5051716;28;20478;-65
2022/07/19 11:31:24;;;;;;;4.45;2.00;;;35.80;31.30;;;;;;5050152;28;20067;-65
2022/07/19 11:33:53;;;;;;;5.68;1.83;;;35.90;31.10;;;;;;5050675;28;20104;-65
2022/07/19 11:36:19;;;;;;;4.15;1.48;;;35.90;30.70;;;;;;5056975;28;20044;-65
2022/07/19 11:38:54;;;;;;;3.38;1.65;;;35.90;30.70;;;;;;5060403;28;20040;-65
2022/07/19 11:41:26;;;;;;;5.55;2.00;;;36.00;31.20;;;;;;5051696;28;20525;-68
2022/07/19 11:43:52;;;;;;;6.60;1.93;;;36.00;31.70;;;;;;5050711;28;20467;-71
2022/07/19 11:46:19;;;;;;;3.95;1.77;;;36.20;31.30;;;;;;5051494;28;20128;-68
2022/07/19 11:48:45;;;;;;;4.60;1.60;;;36.30;30.90;;;;;;5052109;28;20056;-69
2022/07/19 11:51:11;;;;;;;3.78;1.88;;;36.30;30.90;;;;;;5034976;28;20847;-68
2022/07/19 11:53:39;;;;;;;6.28;1.80;;;36.40;30.80;;;;;;5051665;28;20075;-68
2022/07/19 11:56:15;;;;;;;3.05;1.50;;;36.50;31.30;;;;;;5052590;28;20482;-64
2022/07/19 11:58:41;;;;;;;4.68;1.60;;;36.50;30.90;;;;;;5050563;28;20041;-64
2022/07/19 12:01:07;;;;;;;5.05;1.70;;;36.60;30.10;;;;;;5052472;28;20047;-64
2022/07/19 12:03:33;;;;;;;2.40;1.50;;;36.70;30.00;;;;;;5050779;28;20036;-64
2022/07/19 12:06:02;;;;;;;3.38;1.50;;;36.80;29.90;;;;;;5034868;28;20090;-64
2022/07/19 12:08:43;;;;;;;4.57;1.50;;;36.90;30.10;;;;;;5051267;28;20037;-63
2022/07/19 12:11:21;;;;;;;3.80;1.52;;;37.00;30.00;;;;;;5067655;28;20144;-64
2022/07/19 12:13:47;;;;;;;5.45;1.60;;;37.10;30.10;;;;;;5051974;28;20041;-66
2022/07/19 12:16:13;;;;;;;3.97;1.60;;;37.20;29.90;;;;;;5050926;28;20041;-65
2022/07/19 12:18:53;;;;;;;2.97;1.63;;;37.20;30.00;;;;;;5033734;28;20202;-66
2022/07/19 12:21:40;;;;;;;3.08;1.40;;;37.30;29.80;;;;;;5050842;28;20092;-64
2022/07/19 12:24:23;;;;;;;3.53;1.30;;;37.30;29.80;;;;;;5052231;28;20120;-64
2022/07/19 12:26:53;;;;;;;2.15;1.33;;;37.30;29.10;;;;;;5051180;28;20045;-63
2022/07/19 12:29:26;;;;;;;4.38;1.70;;;37.30;29.40;;;;;;5052217;28;21008;-63
2022/07/19 12:31:57;;;;;;;5.38;1.40;;;37.40;29.60;;;;;;5048779;28;20600;-63
2022/07/19 12:34:24;;;;;;;4.72;1.60;;;37.30;29.40;;;;;;5048105;28;20048;-65
2022/07/19 12:36:50;;;;;;;7.75;1.73;;;37.30;29.80;;;;;;5052413;28;20048;-64
2022/07/19 12:39:27;;;;;;;4.28;1.27;;;37.30;29.30;;;;;;5060829;28;20041;-64
2022/07/19 12:42:07;;;;;;;5.05;1.70;;;37.30;28.60;;;;;;5033511;28;20045;-64
2022/07/19 12:44:34;;;;;;;1.73;1.00;;;37.30;29.00;;;;;;5049987;28;20112;-64
2022/07/19 12:47:00;;;;;;;3.97;1.30;;;37.30;29.10;;;;;;5050581;28;20110;-64
2022/07/19 12:49:39;;;;;;;3.55;1.30;;;37.20;28.90;;;;;;5050658;28;20041;-64
2022/07/19 12:52:05;;;;;;;5.15;1.50;;;37.20;28.80;;;;;;5051478;28;20034;-64
2022/07/19 12:54:30;;;;;;;3.60;1.38;;;37.20;28.90;;;;;;5050671;28;20086;-67